Latest Coastal Weather Observations for Bairnsdale

IDV60701

Issued at 8:22 pm EDT Thursday 21 October 2021 (issued every 10 minutes, with the page automatically refreshed every 10 minutes)

About coastal observations | Map of coastal stations | Coastal observations for VIC | Marine services | Other Formats
Station Details ID: 085279 Name: BAIRNSDALE AIRPORT Lat: -37.88 Lon: 147.57 Height: 49.4 m
Data from the previous 72 hours. | See also: Recent months at Bairnsdale
Date/Time
EDT
Wind Sea
Height
m
Swell Vis
km
Cloud Weather Temp
°C
Press
MSL
hPa
Rain since
9am
mm
Dir  Spd
kts
Gust
kts
Height
m
Period
s
Dir
21/08:00pm SSE 5 6 - - - - 10 - - 16.3 1014.9 0.0
21/07:30pm SSE 6 6 - - - - 10 - - 17.2 1014.7 0.0
21/07:00pm ESE 6 7 - - - - 10 - - 18.5 1014.3 0.0
21/06:30pm E 9 11 - - - - 10 - - 18.7 1014.1 0.0
21/06:00pm E 10 13 - - - - 10 - - 19.5 1013.9 0.0
21/05:30pm E 14 17 - - - - 10 - - 19.7 1013.8 0.0
21/05:00pm E 13 17 - - - - 10 - - 20.7 1013.7 0.0
21/04:30pm E 12 15 - - - - 10 - - 20.9 1014.0 0.0
21/04:00pm E 11 15 - - - - 10 - - 21.5 1013.9 0.0
21/03:30pm ESE 10 13 - - - - 10 - - 21.3 1014.2 0.0
21/03:00pm ESE 7 10 - - - - 10 - - 20.6 1014.6 0.0
21/02:30pm ESE 8 11 - - - - 10 - - 20.6 1014.8 0.0
21/02:00pm ESE 9 11 - - - - 10 - - 20.9 1015.1 0.0
21/01:30pm ESE 9 11 - - - - 10 - - 20.8 1015.2 0.0
21/01:00pm ENE 6 9 - - - - 10 - - 20.8 1015.6 0.0
21/12:30pm ENE 7 11 - - - - 10 - - 20.7 1015.9 0.0
21/12:00pm E 6 9 - - - - 10 - - 20.2 1016.2 0.0
21/11:30am SE 3 6 - - - - 10 - - 19.2 1016.7 0.0
21/11:00am SE 2 4 - - - - 10 - - 17.9 1017.0 0.0
21/10:30am SE 1 3 - - - - 10 - - 16.8 1017.2 0.0
21/10:00am N 4 7 - - - - 10 - - 16.2 1017.4 0.0
21/09:30am ENE 5 6 - - - - 10 - - 15.3 1017.4 0.0
21/09:00am NE 3 5 - - - - 10 - - 14.7 1017.8 0.2
21/08:30am NNE 3 4 - - - - 10 - - 13.0 1017.8 0.2
21/08:00am WNW 3 4 - - - - 10 - - 11.0 1017.8 0.2
21/07:30am NW 3 4 - - - - 10 - - 9.7 1017.8 0.2
21/07:04am NW 5 5 - - - - 10 - - 8.8 1017.7 0.2
21/07:00am NW 4 5 - - - - 10 - - 8.6 1017.7 0.2
21/06:30am NW 4 5 - - - - 0.6 Partly cloudy - 7.6 1017.3 0.2
21/06:00am NW 4 5 - - - - 0.5 - - 7.7 1017.0 0.2
21/05:30am NNW 4 5 - - - - 0.9 - - 9.3 1017.1 0.2
21/05:00am NNW 3 4 - - - - 1 - - 9.4 1017.2 0.2
21/04:51am N 4 4 - - - - 5 - - 9.2 1017.1 0.2
21/04:30am NE 5 6 - - - - 10 - - 11.1 1017.0 0.2
21/04:00am ENE 8 10 - - - - 10 - - 11.8 1016.9 0.2
21/03:30am ENE 6 7 - - - - 10 - - 11.6 1017.0 0.2
21/03:00am ENE 6 7 - - - - 10 - - 11.9 1017.3 0.2
21/02:30am ENE 7 9 - - - - 10 - - 12.1 1017.7 0.2
21/02:00am ENE 6 7 - - - - 10 - - 12.3 1018.2 0.2
21/01:30am ENE 8 10 - - - - 10 - - 12.7 1018.7 0.2
21/01:00am ENE 8 10 - - - - 10 - - 12.6 1019.2 0.2
21/12:30am NE 6 8 - - - - 10 - - 12.4 1019.6 0.2
21/12:00am NNE 4 6 - - - - 10 - - 12.6 1019.9 0.2
 
Date/Time
EDT
Wind Sea
Height
m
Swell Vis
km
Cloud Weather Temp
°C
Press
MSL
hPa
Rain since
9am
mm
Dir  Spd
kts
Gust
kts
Height
m
Period
s
Dir
20/11:30pm ENE 7 10 - - - - 10 - - 12.9 1020.1 0.2
20/11:12pm ENE 9 11 - - - - 10 Partly cloudy - 13.2 1020.4 0.2
20/11:00pm ENE 8 11 - - - - 10 Partly cloudy - 13.2 1020.5 0.2
20/10:30pm ENE 10 13 - - - - 10 Partly cloudy - 13.9 1020.6 0.2
20/10:25pm ENE 10 14 - - - - 10 Partly cloudy - 13.9 1020.6 0.2
20/10:00pm ENE 12 15 - - - - 10 Partly cloudy - 13.9 1020.5 0.2
20/09:30pm E 14 20 - - - - 10 Partly cloudy - 14.0 1020.4 0.2
20/09:00pm E 17 21 - - - - 10 - - 14.2 1020.2 0.2
20/08:39pm E 17 21 - - - - 10 Partly cloudy - 14.2 1020.0 0.2
20/08:30pm E 17 23 - - - - 10 Partly cloudy - 14.2 1019.9 0.2
20/08:19pm E 17 22 - - - - 10 Partly cloudy - 14.3 1019.8 0.2
20/08:00pm E 17 25 - - - - 10 Partly cloudy - 14.4 1019.7 0.2
20/07:30pm E 19 25 - - - - 10 - - 14.6 1019.4 0.2
20/07:00pm E 20 26 - - - - 10 Partly cloudy - 14.9 1019.4 0.2
20/06:48pm E 19 27 - - - - 10 Partly cloudy - 15.0 1019.3 0.2
20/06:30pm E 18 24 - - - - 10 Partly cloudy - 15.3 1019.4 0.2
20/06:00pm E 18 23 - - - - 10 Partly cloudy - 15.7 1019.6 0.2
20/05:58pm E 19 23 - - - - 10 Partly cloudy - 15.8 1019.5 0.2
20/05:30pm E 21 27 - - - - 10 Partly cloudy - 16.0 1019.5 0.2
20/05:00pm E 21 25 - - - - 10 Partly cloudy - 16.5 1019.7 0.2
20/04:30pm E 20 25 - - - - 10 Partly cloudy - 17.1 1019.9 0.2
20/04:00pm E 19 25 - - - - 10 Partly cloudy - 17.2 1020.3 0.2
20/03:30pm ESE 18 25 - - - - 10 Partly cloudy - 17.3 1020.8 0.2
20/03:00pm ESE 16 23 - - - - 10 Partly cloudy - 17.6 1021.2 0.2
20/02:30pm E 19 24 - - - - 10 Partly cloudy - 17.6 1021.4 0.2
20/02:00pm E 18 22 - - - - 10 Partly cloudy - 17.6 1021.5 0.2
20/01:30pm E 17 22 - - - - 10 Partly cloudy - 17.9 1021.8 0.2
20/01:00pm E 15 21 - - - - 10 Partly cloudy - 16.4 1022.2 0.2
20/12:30pm E 17 21 - - - - 10 Partly cloudy - 17.6 1022.4 0.2
20/12:00pm E 15 21 - - - - 10 Cloudy Recent precip. 16.8 1023.0 0.2
20/11:30am E 15 21 - - - - 10 Partly cloudy - 17.0 1023.4 0.0
20/11:00am E 13 16 - - - - 10 Partly cloudy - 16.2 1023.9 0.0
20/10:30am E 13 17 - - - - 10 Partly cloudy - 16.6 1024.0 0.0
20/10:00am ESE 12 15 - - - - 10 Partly cloudy - 15.6 1024.2 0.0
20/09:30am ESE 14 19 - - - - 10 Partly cloudy - 14.9 1024.2 0.0
20/09:00am E 13 16 - - - - 10 Cloudy - 14.5 1024.4 1.8
20/08:30am E 11 14 - - - - 10 Partly cloudy - 14.0 1024.7 1.8
20/08:00am ESE 9 15 - - - - 10 Partly cloudy - 13.7 1024.7 1.8
20/07:30am E 10 12 - - - - 10 Partly cloudy - 13.0 1024.3 1.8
20/07:00am ESE 9 12 - - - - 10 Partly cloudy - 12.6 1024.4 1.8
20/06:30am ESE 8 11 - - - - 10 Partly cloudy - 12.5 1024.1 1.8
20/06:00am ESE 7 9 - - - - 10 Cloudy - 12.1 1024.1 1.8
20/05:30am ESE 8 10 - - - - 10 Partly cloudy - 12.2 1023.9 1.8
20/05:00am ESE 8 11 - - - - 10 Partly cloudy - 12.5 1023.9 1.8
20/04:47am ESE 9 14 - - - - 10 Partly cloudy - 12.6 1023.9 1.8
20/04:30am ESE 8 13 - - - - 10 Partly cloudy - 12.6 1023.9 1.8
20/04:29am ESE 8 13 - - - - 10 Partly cloudy - 12.6 1023.9 1.8
20/04:00am SE 12 16 - - - - 10 Partly cloudy - 12.7 1023.8 1.8
20/03:30am SE 9 14 - - - - 10 Partly cloudy - 12.8 1024.0 1.8
20/03:00am SE 9 12 - - - - 10 Cloudy - 12.7 1023.9 1.8
20/02:30am SE 10 15 - - - - 10 Cloudy - 12.7 1024.2 1.8
20/02:03am SE 11 15 - - - - 9 Partly cloudy - 12.3 1024.6 1.8
20/02:00am SE 11 15 - - - - 7 Partly cloudy - 12.2 1024.6 1.8
20/01:57am SE 11 15 - - - - 7 Partly cloudy - 12.1 1024.7 1.8
20/01:47am SE 12 16 - - - - 5 Partly cloudy - 12.6 1024.7 1.8
20/01:44am SE 12 16 - - - - 5 Partly cloudy - 12.7 1024.7 1.6
20/01:30am SSE 10 14 - - - - 8 Partly cloudy - 12.7 1024.8 1.4
20/01:00am SE 9 14 - - - - 10 Partly cloudy - 13.0 1025.0 1.4
20/12:30am SE 10 13 - - - - 10 Partly cloudy - 13.1 1024.9 1.4
20/12:00am SE 9 15 - - - - 10 Cloudy - 13.1 1024.5 1.4
 
Date/Time
EDT
Wind Sea
Height
m
Swell Vis
km
Cloud Weather Temp
°C
Press
MSL
hPa
Rain since
9am
mm
Dir  Spd
kts
Gust
kts
Height
m
Period
s
Dir
19/11:30pm ESE 7 8 - - - - 10 Partly cloudy - 12.8 1024.2 1.4
19/11:00pm ESE 7 10 - - - - 10 Partly cloudy - 12.4 1024.1 1.4
19/10:30pm ESE 7 10 - - - - 10 Partly cloudy - 12.7 1024.1 1.4
19/10:00pm ESE 8 10 - - - - 10 Partly cloudy - 12.9 1024.2 1.4
19/09:30pm SE 7 9 - - - - 10 Partly cloudy - 12.7 1024.5 1.4
19/09:00pm SE 6 9 - - - - 10 Mostly cloudy Recent precip. 12.6 1024.1 1.4
19/08:45pm SE 9 12 - - - - 10 Partly cloudy - 12.3 1024.0 1.4
19/08:30pm ESE 11 14 - - - - 4 Partly cloudy - 12.1 1023.8 1.4
19/08:08pm SE 11 17 - - - - 5 Partly cloudy - 12.3 1023.5 1.0
19/08:00pm SE 9 13 - - - - 10 Partly cloudy - 12.1 1023.6 1.0
19/07:59pm SE 9 13 - - - - 10 Partly cloudy - 12.0 1023.5 1.0
19/07:56pm SE 10 12 - - - - 10 Partly cloudy - 12.0 1023.5 1.0
19/07:44pm SE 14 19 - - - - 5 Partly cloudy - 12.0 1023.6 1.0
19/07:30pm SE 11 15 - - - - 10 Partly cloudy - 12.7 1023.3 0.8
19/07:00pm SE 11 15 - - - - 10 Partly cloudy - 12.8 1023.1 0.8
19/06:53pm SE 9 15 - - - - 10 Partly cloudy - 12.8 1023.1 0.8
19/06:30pm SSE 11 14 - - - - 5 Partly cloudy - 12.7 1023.0 0.4
19/06:29pm SSE 11 16 - - - - 5 Partly cloudy - 12.6 1022.9 0.4
19/06:20pm SE 12 17 - - - - 5 Partly cloudy - 12.6 1022.8 0.0
19/06:00pm SE 13 18 - - - - 10 Cloudy - 13.4 1022.6 0.0
19/05:30pm SSE 13 17 - - - - 10 Partly cloudy - 14.1 1022.6 0.0
19/05:00pm SSE 11 15 - - - - 10 Partly cloudy - 14.5 1022.3 0.0
19/04:30pm SSE 11 17 - - - - 10 Partly cloudy - 15.5 1022.0 0.0
19/04:00pm SSE 11 17 - - - - 10 Partly cloudy - 15.4 1021.8 0.0
19/03:30pm SSE 12 16 - - - - 10 - - 15.5 1021.7 0.0
19/03:00pm SSE 12 16 - - - - 10 - - 15.7 1021.7 0.0
19/02:30pm SSE 11 15 - - - - 10 - - 16.0 1021.3 0.0
19/02:00pm S 11 14 - - - - 10 Partly cloudy - 15.3 1021.1 0.0
19/01:30pm S 12 15 - - - - 10 Partly cloudy - 15.8 1020.9 0.0
19/01:00pm S 12 16 - - - - 10 Partly cloudy - 15.7 1020.7 0.0
19/12:30pm SSW 14 20 - - - - 10 Partly cloudy - 15.6 1020.7 0.0
19/12:00pm SW 11 16 - - - - 10 Partly cloudy - 14.9 1020.6 0.0
19/11:30am WSW 9 13 - - - - 10 Partly cloudy - 13.3 1021.0 0.0
19/11:00am W 9 13 - - - - 10 Partly cloudy - 13.4 1021.1 0.0
19/10:30am W 9 13 - - - - 10 Partly cloudy - 12.9 1021.0 0.0
19/10:00am W 11 15 - - - - 10 Partly cloudy - 13.2 1020.9 0.0
19/09:30am W 11 15 - - - - 10 Partly cloudy - 12.9 1020.8 0.0
19/09:00am W 11 14 - - - - 10 - - 12.3 1020.6 8.4
19/08:30am W 11 15 - - - - 10 - - 11.3 1020.3 8.4
19/08:00am W 10 13 - - - - 10 - - 10.4 1020.0 8.4
19/07:30am W 9 12 - - - - 10 - - 9.4 1019.6 8.4
19/07:00am WNW 7 10 - - - - 10 Partly cloudy - 8.7 1019.3 8.4
19/06:30am WNW 7 9 - - - - 10 Partly cloudy - 8.6 1019.1 8.4
19/06:00am WNW 7 9 - - - - 10 Cloudy - 8.9 1018.9 8.4
19/05:30am WNW 7 9 - - - - 10 Cloudy - 9.1 1018.5 8.4
19/05:00am WNW 7 10 - - - - 10 Partly cloudy - 9.4 1018.3 8.4
19/04:30am W 6 9 - - - - 10 Partly cloudy - 9.9 1018.1 8.4
19/04:00am W 6 8 - - - - 10 Cloudy - 9.9 1017.8 8.4
19/03:30am W 7 11 - - - - 10 Partly cloudy - 10.0 1017.6 8.4
19/03:19am W 5 6 - - - - 10 Partly cloudy - 10.0 1017.6 8.4
19/03:07am SW 6 9 - - - - 10 Partly cloudy - 10.0 1017.5 8.4
19/03:04am SW 6 9 - - - - 10 Partly cloudy - 10.1 1017.5 8.4
19/03:00am SW 6 9 - - - - 8 Cloudy Rain 10.1 1017.5 8.4
19/02:47am W 7 11 - - - - 5 Partly cloudy - 10.3 1017.9 8.0
19/02:30am WNW 5 6 - - - - 10 Partly cloudy - 10.3 1018.0 8.0
19/02:00am W 5 6 - - - - 10 Partly cloudy - 10.2 1017.9 8.0
19/01:30am NW 5 6 - - - - 10 Partly cloudy - 10.3 1018.1 8.0
19/01:00am NW 5 6 - - - - 10 Partly cloudy - 10.2 1017.7 8.0
19/12:30am WNW 5 5 - - - - 10 Partly cloudy - 10.3 1017.5 8.0
19/12:00am WNW 3 5 - - - - 10 Cloudy Rain 10.3 1017.5 8.0
 
Date/Time
EDT
Wind Sea
Height
m
Swell Vis
km
Cloud Weather Temp
°C
Press
MSL
hPa
Rain since
9am
mm
Dir  Spd
kts
Gust
kts
Height
m
Period
s
Dir
18/11:30pm W 5 7 - - - - 10 Partly cloudy - 10.5 1017.3 7.4
18/11:00pm WNW 4 7 - - - - 10 Partly cloudy - 10.8 1017.5 6.0
18/10:30pm WNW 6 9 - - - - 10 Partly cloudy - 10.9 1017.3 5.0
18/10:00pm NNW 5 6 - - - - 10 Partly cloudy - 10.9 1017.1 4.2
18/09:30pm SW 4 6 - - - - 10 Partly cloudy - 10.9 1016.7 4.0
18/09:00pm SW 10 13 - - - - 10 Mostly cloudy Rain 10.9 1016.1 4.0
18/08:42pm SSW 13 18 - - - - 10 Partly cloudy - 11.2 1016.0 3.4
18/08:30pm SSW 15 19 - - - - 5 Partly cloudy - 11.4 1015.8 3.0
18/08:24pm SSW 15 19 - - - - 5 Partly cloudy - 11.5 1015.6 2.6

Other formats

Comma delimited format used in spreadsheet applications
http://www.bom.gov.au/fwo/IDV60701/IDV60701.94912.axf

JavaScript Object Notation format (JSON) in row-major order
http://www.bom.gov.au/fwo/IDV60701/IDV60701.94912.json

Data quality

Most of these data are generated automatically and are frequently updated. Quality checks on data are not normally performed. It is possible for incorrect values to appear. Refer to information at About Latest Weather Observations and please check the disclaimer before using these data.